createdAt,value
2023-01-13T17:17:57.290Z,100608.38
2023-01-13T17:23:02.599Z,100612.16
2023-01-13T17:28:08.018Z,100613.59
2023-01-13T17:33:15.915Z,100622.00
2023-01-13T17:38:20.957Z,100611.59
2023-01-13T17:43:26.317Z,100614.94
2023-01-13T17:48:34.202Z,100630.22
2023-01-13T17:53:40.819Z,100633.59
2023-01-13T17:58:46.845Z,100648.91
2023-01-13T18:03:55.034Z,100654.84
2023-01-13T18:09:01.645Z,100659.09
2023-01-13T18:14:07.198Z,100659.09
2023-01-13T18:19:27.842Z,100663.34
2023-01-13T18:24:45.523Z,100671.88
2023-01-13T18:29:50.957Z,100678.72
2023-01-13T18:35:05.754Z,100691.53
2023-01-13T18:40:14.061Z,100692.34
2023-01-13T18:45:19.557Z,100696.56
2023-01-13T18:50:28.283Z,100700.84
2023-01-13T18:55:33.611Z,100717.91
2023-01-13T19:00:38.850Z,100708.47
2023-01-13T19:05:46.807Z,100723.00
2023-01-13T19:10:53.074Z,100732.38
2023-01-13T19:15:58.264Z,100748.69
2023-01-13T19:21:08.668Z,100746.09
2023-01-13T19:26:14.787Z,100752.06
2023-01-13T19:31:20.652Z,100752.09
2023-01-13T19:36:28.941Z,100748.66
2023-01-13T19:41:46.544Z,100748.63
2023-01-13T19:46:51.725Z,100747.78
2023-01-13T19:51:59.415Z,100754.66
2023-01-13T19:57:04.669Z,100759.91
2023-01-13T20:02:15.812Z,100770.25
2023-01-13T20:07:23.760Z,100784.97
2023-01-13T20:12:30.606Z,100802.28
2023-01-13T20:17:36.521Z,100799.00
2023-01-13T20:22:44.406Z,100805.00
2023-01-13T20:27:50.199Z,100811.81
2023-01-13T20:32:55.347Z,100817.75
2023-01-13T20:38:02.990Z,100816.00
2023-01-13T20:43:08.079Z,100815.06
2023-01-13T20:48:13.275Z,100820.16
2023-01-13T20:53:21.106Z,100836.34
2023-01-13T20:58:26.585Z,100850.06
2023-01-13T21:03:31.727Z,100854.34
2023-01-13T21:08:39.514Z,100867.16
2023-01-13T21:13:57.164Z,100861.16
2023-01-13T21:19:11.262Z,100860.25
2023-01-13T21:24:18.948Z,100861.09
2023-01-13T21:29:24.371Z,100865.34
2023-01-13T21:34:29.632Z,100852.53
2023-01-13T21:39:37.379Z,100863.66
2023-01-13T21:44:55.031Z,100863.66
2023-01-13T21:50:00.206Z,100878.19
2023-01-13T21:55:25.448Z,100882.41
2023-01-13T22:00:32.844Z,100896.97
2023-01-13T22:05:38.118Z,100898.66
2023-01-13T22:11:00.849Z,100908.06
2023-01-13T22:16:08.999Z,100912.34
2023-01-13T22:21:14.170Z,100927.75
2023-01-13T22:26:22.227Z,100914.00
2023-01-13T22:31:27.759Z,100913.22
2023-01-13T22:36:32.937Z,100923.47
2023-01-13T22:41:40.725Z,100923.47
2023-01-13T22:46:46.287Z,100941.41
2023-01-13T22:51:51.356Z,100948.25
2023-01-13T22:56:59.164Z,100959.38
2023-01-13T23:02:04.557Z,100959.34
2023-01-13T23:07:09.724Z,100965.38
2023-01-13T23:12:17.372Z,100961.97
2023-01-13T23:17:22.587Z,100961.19
2023-01-13T23:22:28.047Z,100968.13
2023-01-13T23:27:35.753Z,100969.06
2023-01-13T23:32:41.418Z,100975.97
